Time;durP1;ratioP1;P1;durP2;ratioP2;P2;SDS_P1;SDS_P2;PMS_P1;PMS_P2;Temp;Humidity;BMP_temperature;BMP_pressure;BME280_temperature;BME280_humidity;BME280_pressure;Samples;Min_cycle;Max_cycle;Signal;HPM_P1;HPM_P2
2023/01/01 00:00:37;;;;;;;6.90;2.92;;;;;;;13.49;97.09;98665.28;4171466;28;20243;-50
2023/01/01 00:02:39;;;;;;;5.38;2.92;;;;;;;13.47;97.52;98659.25;4164826;28;20203;-51
2023/01/01 00:04:41;;;;;;;2.97;2.55;;;;;;;13.41;97.74;98670.44;4171546;28;20240;-50
2023/01/01 00:06:44;;;;;;;2.45;2.00;;;;;;;13.42;97.88;98652.84;4172080;28;20227;-51
2023/01/01 00:08:46;;;;;;;2.95;2.15;;;;;;;13.39;98.01;98656.16;4183818;28;21197;-50
2023/01/01 00:10:48;;;;;;;2.78;2.22;;;;;;;13.43;97.57;98662.78;4168191;28;20208;-51
2023/01/01 00:12:49;;;;;;;2.35;2.03;;;;;;;13.39;97.85;98661.66;4166087;28;20696;-51
2023/01/01 00:14:51;;;;;;;3.25;2.13;;;;;;;13.40;97.77;98658.66;4156069;28;20232;-51
2023/01/01 00:16:54;;;;;;;2.95;2.50;;;;;;;13.39;98.06;98654.25;4169303;28;20732;-50
2023/01/01 00:18:56;;;;;;;1.95;1.85;;;;;;;13.43;98.25;98658.09;4174371;28;20306;-50
2023/01/01 00:21:05;;;;;;;2.92;1.88;;;;;;;13.35;98.28;98664.09;4171797;28;20217;-50
2023/01/01 00:23:07;;;;;;;1.95;1.83;;;;;;;13.39;98.55;98664.41;4170292;28;21111;-50
2023/01/01 00:25:12;;;;;;;3.70;2.47;;;;;;;13.32;98.70;98670.13;4157580;28;20204;-51
2023/01/01 00:27:14;;;;;;;2.75;2.25;;;;;;;13.39;98.55;98678.13;4167717;28;20625;-51
2023/01/01 00:29:16;;;;;;;2.90;1.92;;;;;;;13.36;98.70;98678.69;4170739;28;20324;-51
2023/01/01 00:31:20;;;;;;;1.67;1.58;;;;;;;13.36;98.80;98674.00;4171879;28;20209;-50
2023/01/01 00:33:21;;;;;;;5.50;1.83;;;;;;;13.38;98.75;98662.75;4172524;28;20211;-51
2023/01/01 00:35:24;;;;;;;4.32;2.00;;;;;;;13.34;99.29;98669.84;4172720;28;20235;-51
2023/01/01 00:37:27;;;;;;;1.90;1.60;;;;;;;13.35;99.01;98666.00;4168923;28;20200;-51
2023/01/01 00:39:28;;;;;;;3.55;1.98;;;;;;;13.38;98.93;98655.31;4169696;28;20228;-51
2023/01/01 00:41:30;;;;;;;2.20;1.70;;;;;;;13.37;98.77;98637.16;4167937;28;20298;-51
2023/01/01 00:43:32;;;;;;;2.05;1.60;;;;;;;13.31;99.12;98654.72;4170509;28;20236;-51
2023/01/01 00:45:34;;;;;;;4.75;2.03;;;;;;;13.29;99.47;98659.66;4171701;28;20597;-51
2023/01/01 00:47:35;;;;;;;2.88;1.88;;;;;;;13.26;99.71;98651.94;4155262;28;20652;-51
2023/01/01 00:49:37;;;;;;;1.10;0.95;;;;;;;13.23;99.57;98652.47;4181620;28;20227;-51
2023/01/01 00:51:39;;;;;;;2.67;1.30;;;;;;;13.24;99.58;98643.13;4184314;28;20207;-50
2023/01/01 00:53:41;;;;;;;1.90;1.73;;;;;;;13.30;99.67;98636.56;4169642;28;20210;-51
2023/01/01 00:55:43;;;;;;;2.13;1.90;;;;;;;13.28;99.57;98643.41;4168527;28;20391;-51
2023/01/01 00:57:44;;;;;;;2.25;1.83;;;;;;;13.31;99.23;98649.22;4171449;28;20261;-51
2023/01/01 00:59:46;;;;;;;1.58;1.42;;;;;;;13.31;99.29;98646.47;4174081;28;20224;-51
2023/01/01 01:01:48;;;;;;;1.40;1.30;;;;;;;13.27;99.31;98642.59;4171425;28;21245;-51
2023/01/01 01:03:50;;;;;;;2.33;1.60;;;;;;;13.31;99.00;98640.97;4170638;28;20232;-51
2023/01/01 01:05:55;;;;;;;1.50;1.40;;;;;;;13.23;99.37;98646.97;4168139;28;20207;-52
2023/01/01 01:07:57;;;;;;;1.95;1.35;;;;;;;13.26;99.33;98651.94;4169205;28;20319;-52
2023/01/01 01:09:59;;;;;;;3.33;1.52;;;;;;;13.26;99.07;98651.09;4172799;28;20254;-51
2023/01/01 01:12:01;;;;;;;2.63;1.42;;;;;;;13.22;99.19;98667.28;4172876;28;20303;-51
2023/01/01 01:14:19;;;;;;;1.55;1.45;;;;;;;13.20;99.47;98647.50;4168953;28;20208;-51
2023/01/01 01:16:24;;;;;;;2.42;1.73;;;;;;;13.27;98.85;98656.34;4171813;28;20227;-51
2023/01/01 01:18:26;;;;;;;2.05;1.35;;;;;;;13.23;98.77;98657.97;4181792;28;20215;-51
2023/01/01 01:20:27;;;;;;;1.25;1.15;;;;;;;13.24;98.88;98670.59;4169331;28;20266;-51
2023/01/01 01:22:29;;;;;;;1.83;1.65;;;;;;;13.24;98.82;98665.09;4165992;28;20315;-51
2023/01/01 01:24:31;;;;;;;1.80;1.05;;;;;;;13.25;98.54;98666.75;4170050;28;20250;-51
2023/01/01 01:26:34;;;;;;;1.40;1.30;;;;;;;13.20;98.88;98661.25;4168737;28;20204;-52
2023/01/01 01:28:35;;;;;;;1.60;1.40;;;;;;;13.20;99.03;98655.75;4172823;28;20331;-51
2023/01/01 01:30:38;;;;;;;2.08;1.77;;;;;;;13.22;98.58;98650.81;4169385;28;20224;-52
2023/01/01 01:32:40;;;;;;;3.38;1.90;;;;;;;13.19;98.65;98645.84;4169382;28;20200;-51
2023/01/01 01:34:41;;;;;;;3.03;2.03;;;;;;;13.18;98.51;98652.41;4151544;28;20206;-51
2023/01/01 01:36:43;;;;;;;2.63;1.35;;;;;;;13.22;98.36;98656.31;4168596;28;20710;-51
2023/01/01 01:38:48;;;;;;;2.15;1.35;;;;;;;13.17;98.70;98659.00;4167152;28;20204;-51
2023/01/01 01:40:50;;;;;;;3.08;1.33;;;;;;;13.25;97.98;98646.72;4166218;28;20278;-52
2023/01/01 01:42:52;;;;;;;2.00;1.48;;;;;;;13.26;98.07;98651.94;4168342;28;20219;-52
2023/01/01 01:45:05;;;;;;;1.75;1.35;;;;;;;13.23;98.20;98657.16;4168501;28;20293;-50
2023/01/01 01:47:16;;;;;;;1.42;1.30;;;;;;;13.15;98.13;98655.69;4182913;28;20217;-51
2023/01/01 01:49:27;;;;;;;1.98;1.20;;;;;;;13.26;98.17;98646.44;4171999;28;20273;-52
2023/01/01 01:51:34;;;;;;;1.73;1.33;;;;;;;13.13;98.58;98644.16;4171034;28;20254;-50
2023/01/01 01:53:39;;;;;;;2.13;1.63;;;;;;;13.20;98.29;98650.25;4150733;28;20304;-51
2023/01/01 01:55:50;;;;;;;2.05;1.25;;;;;;;13.10;98.45;98652.91;4165763;28;20216;-50
2023/01/01 01:57:52;;;;;;;2.30;1.63;;;;;;;13.12;98.49;98669.13;4170674;28;20317;-52
2023/01/01 01:59:55;;;;;;;2.70;1.42;;;;;;;13.10;98.62;98663.09;4171409;28;20305;-52
2023/01/01 02:01:57;;;;;;;2.13;1.40;;;;;;;13.16;97.95;98657.34;4152103;28;20727;-51
2023/01/01 02:04:01;;;;;;;1.73;1.50;;;;;;;13.23;97.47;98641.47;4170838;28;20277;-52
2023/01/01 02:06:03;;;;;;;3.55;1.35;;;;;;;13.21;97.70;98654.66;4170887;28;20700;-52
2023/01/01 02:08:05;;;;;;;1.60;1.50;;;;;;;13.15;97.44;98665.84;4172371;28;20215;-51
2023/01/01 02:10:07;;;;;;;2.92;1.23;;;;;;;13.20;97.14;98653.00;4170021;28;20224;-51
2023/01/01 02:12:09;;;;;;;2.13;1.80;;;;;;;13.22;97.34;98669.19;4170460;28;20216;-51
2023/01/01 02:14:11;;;;;;;1.30;1.00;;;;;;;13.15;97.35;98671.34;4169470;28;20658;-51
2023/01/01 02:16:23;;;;;;;2.67;1.30;;;;;;;13.24;96.42;98670.59;4171245;28;20263;-51
2023/01/01 02:18:51;;;;;;;1.48;1.38;;;;;;;13.38;95.49;98662.75;4170021;28;20247;-51
2023/01/01 02:21:05;;;;;;;1.90;1.77;;;;;;;13.31;95.95;98664.91;4166000;28;20211;-51
2023/01/01 02:23:25;;;;;;;1.63;1.52;;;;;;;13.18;96.32;98655.16;4170426;28;20357;-51
2023/01/01 02:25:39;;;;;;;2.25;1.15;;;;;;;13.18;96.57;98671.66;4188518;28;20239;-52
2023/01/01 02:28:01;;;;;;;1.95;1.80;;;;;;;13.14;96.29;98670.53;4168996;28;20262;-50
2023/01/01 02:30:07;;;;;;;2.47;1.85;;;;;;;13.16;96.34;98679.34;4186764;28;20277;-51
2023/01/01 02:32:42;;;;;;;2.30;1.35;;;;;;;13.20;96.08;98677.72;4169726;28;20208;-50
2023/01/01 02:34:52;;;;;;;2.65;1.38;;;;;;;13.18;96.06;98670.84;4142414;28;20257;-51
2023/01/01 02:36:54;;;;;;;1.42;1.30;;;;;;;13.22;95.73;98674.69;4182292;28;20253;-51
2023/01/01 02:38:58;;;;;;;3.05;1.30;;;;;;;13.23;95.89;98673.63;4168614;28;20215;-51
2023/01/01 02:41:03;;;;;;;2.15;1.08;;;;;;;13.21;95.54;98671.13;4170484;28;20284;-50
2023/01/01 02:43:05;;;;;;;1.40;1.30;;;;;;;13.15;95.90;98661.19;4182895;28;20208;-51
2023/01/01 02:45:07;;;;;;;1.52;1.42;;;;;;;13.16;96.01;98668.34;4170107;28;20204;-51
2023/01/01 02:47:12;;;;;;;1.60;1.48;;;;;;;13.24;95.47;98681.59;4164802;28;20251;-51
2023/01/01 02:49:14;;;;;;;2.22;2.03;;;;;;;13.18;95.57;98671.66;4169792;28;20278;-52
2023/01/01 02:51:29;;;;;;;1.10;1.00;;;;;;;13.16;95.50;98690.31;4171177;28;20212;-51
2023/01/01 02:53:35;;;;;;;2.03;1.63;;;;;;;13.21;95.17;98687.63;4184974;28;20250;-51
2023/01/01 02:56:01;;;;;;;1.23;1.13;;;;;;;13.20;95.42;98687.88;4185311;28;20227;-51
2023/01/01 03:00:39;;;;;;;1.77;1.25;;;;;;;13.20;94.88;98674.13;4170209;28;20316;-52
2023/01/01 03:03:05;;;;;;;2.13;1.52;;;;;;;13.19;94.94;98678.84;4166675;28;20208;-52
2023/01/01 03:05:29;;;;;;;1.50;1.40;;;;;;;13.15;94.80;98672.19;4167771;28;20347;-51
2023/01/01 03:07:35;;;;;;;2.08;1.65;;;;;;;13.20;94.56;98680.47;4169971;28;20228;-51
2023/01/01 03:09:47;;;;;;;3.47;1.35;;;;;;;13.23;94.07;98679.94;4171936;28;20232;-51
2023/01/01 03:12:04;;;;;;;1.45;1.15;;;;;;;13.16;94.39;98676.59;4172588;28;20547;-51
2023/01/01 03:14:20;;;;;;;4.18;1.88;;;;;;;13.14;94.95;98670.53;4172452;28;20207;-51
2023/01/01 03:16:35;;;;;;;4.45;1.77;;;;;;;13.19;94.54;98678.84;4172499;28;20224;-51
2023/01/01 03:18:51;;;;;;;1.42;1.33;;;;;;;13.21;94.27;98671.13;4170563;28;20415;-51
2023/01/01 03:20:55;;;;;;;2.30;1.77;;;;;;;13.16;94.28;98676.59;4169379;28;20200;-51
2023/01/01 03:23:01;;;;;;;2.35;1.15;;;;;;;13.16;94.53;98662.03;4170298;28;20234;-51
2023/01/01 03:25:13;;;;;;;3.38;1.20;;;;;;;13.25;93.76;98677.75;4172299;28;20223;-51
2023/01/01 03:27:21;;;;;;;2.25;1.83;;;;;;;13.23;93.84;98679.94;4169701;28;20231;-51
2023/01/01 03:29:24;;;;;;;1.55;1.23;;;;;;;13.27;93.51;98672.00;4169252;28;20627;-52
2023/01/01 03:31:26;;;;;;;1.50;1.40;;;;;;;13.31;93.23;98676.69;4170553;28;20203;-52
2023/01/01 03:33:37;;;;;;;6.00;1.58;;;;;;;13.30;93.23;98682.47;4168493;28;20251;-52
2023/01/01 03:35:44;;;;;;;1.40;1.27;;;;;;;13.32;93.01;98667.38;4170302;28;20230;-51
2023/01/01 03:37:49;;;;;;;1.60;1.40;;;;;;;13.34;92.84;98678.09;4183801;28;20196;-51
2023/01/01 03:39:52;;;;;;;4.18;1.27;;;;;;;13.38;92.38;98685.53;4149320;28;20347;-52
2023/01/01 03:42:19;;;;;;;1.63;1.20;;;;;;;13.30;93.26;98688.78;4168513;28;20208;-51
2023/01/01 03:44:26;;;;;;;2.55;1.55;;;;;;;13.30;93.14;98680.53;4169239;28;20303;-51
2023/01/01 03:46:30;;;;;;;2.90;1.10;;;;;;;13.25;93.55;98682.44;4169697;28;20275;-52
2023/01/01 03:48:54;;;;;;;1.63;1.10;;;;;;;13.24;93.64;98695.34;4173341;28;20258;-51
2023/01/01 03:51:27;;;;;;;1.50;1.40;;;;;;;13.13;94.07;98687.28;4167854;28;20266;-51
2023/01/01 03:53:39;;;;;;;2.20;1.02;;;;;;;13.17;93.88;98691.97;4161221;28;20243;-52
2023/01/01 03:55:44;;;;;;;1.55;1.05;;;;;;;13.17;94.18;98686.47;4172466;28;20220;-52
2023/01/01 03:57:49;;;;;;;2.00;1.42;;;;;;;13.14;93.94;98683.44;4185917;28;20258;-51
2023/01/01 04:00:10;;;;;;;1.50;1.40;;;;;;;13.11;94.42;98682.03;4169584;28;20232;-51
2023/01/01 04:02:16;;;;;;;1.50;1.40;;;;;;;13.09;94.59;98689.72;4182513;28;20284;-51
2023/01/01 04:04:18;;;;;;;1.65;1.08;;;;;;;13.07;94.48;98675.44;4156851;28;20213;-51
2023/01/01 04:06:20;;;;;;;1.48;1.13;;;;;;;13.05;95.15;98687.75;4158008;28;20646;-51
2023/01/01 04:08:22;;;;;;;1.70;1.60;;;;;;;13.03;95.24;98690.75;4157795;28;20345;-51
2023/01/01 04:10:24;;;;;;;3.13;1.67;;;;;;;12.98;95.25;98706.38;4168053;28;20221;-51
2023/01/01 04:12:29;;;;;;;2.15;1.50;;;;;;;13.01;95.05;98692.94;4171268;28;20212;-51
2023/01/01 04:14:40;;;;;;;1.88;1.30;;;;;;;13.02;95.00;98691.84;4168224;28;21184;-51
2023/01/01 04:16:42;;;;;;;2.00;1.00;;;;;;;13.16;94.25;98692.25;4182569;28;20293;-50
2023/01/01 04:18:44;;;;;;;1.65;1.13;;;;;;;13.09;94.25;98695.22;4168352;28;20698;-51
2023/01/01 04:20:46;;;;;;;1.92;1.30;;;;;;;13.02;94.69;98693.75;4155010;28;20692;-52
2023/01/01 04:22:47;;;;;;;2.72;1.40;;;;;;;13.07;94.31;98696.56;4168535;28;20213;-51
2023/01/01 04:24:49;;;;;;;1.35;1.20;;;;;;;13.06;94.36;98695.75;4173131;28;20295;-51
2023/01/01 04:26:52;;;;;;;2.75;1.42;;;;;;;13.01;94.44;98709.44;4168855;28;20787;-51
2023/01/01 04:28:54;;;;;;;1.48;1.20;;;;;;;13.13;93.95;98706.50;4174219;28;20619;-50
2023/01/01 04:30:55;;;;;;;0.80;0.80;;;;;;;13.07;94.20;98697.41;4170080;28;20216;-51
2023/01/01 04:32:56;;;;;;;1.58;1.45;;;;;;;13.09;93.94;98700.72;4174775;28;20196;-51
2023/01/01 04:34:58;;;;;;;1.42;1.33;;;;;;;13.06;94.04;98701.25;4153674;28;20719;-51
2023/01/01 04:36:59;;;;;;;6.13;1.20;;;;;;;13.15;92.99;98698.81;4169977;28;20259;-51
2023/01/01 04:39:02;;;;;;;2.17;1.17;;;;;;;13.11;93.32;98704.00;4167136;28;20230;-51
2023/01/01 04:41:04;;;;;;;9.00;1.23;;;;;;;13.13;93.00;98701.84;4168912;28;20231;-51
2023/01/01 04:43:06;;;;;;;1.90;1.80;;;;;;;13.09;93.48;98700.72;4168545;28;20616;-52
2023/01/01 04:45:11;;;;;;;2.17;1.17;;;;;;;13.05;93.17;98716.06;4170341;28;20272;-51
2023/01/01 04:47:12;;;;;;;1.17;1.00;;;;;;;12.99;93.83;98708.03;4169115;28;20266;-52
2023/01/01 04:49:14;;;;;;;4.45;1.75;;;;;;;13.07;93.35;98711.16;4169257;28;20258;-51
2023/01/01 04:51:18;;;;;;;3.65;1.63;;;;;;;13.04;93.35;98711.66;4168091;28;20789;-51
2023/01/01 04:53:19;;;;;;;2.65;1.50;;;;;;;12.95;93.54;98704.97;4172985;28;20250;-52
2023/01/01 04:55:21;;;;;;;3.08;1.83;;;;;;;13.00;93.85;98707.78;4168528;28;20242;-51
2023/01/01 04:57:23;;;;;;;1.60;1.05;;;;;;;13.01;93.40;98703.94;4171403;28;21256;-52
2023/01/01 04:59:24;;;;;;;1.67;1.58;;;;;;;12.98;93.29;98720.94;4155413;28;20225;-51
2023/01/01 05:01:27;;;;;;;3.45;2.00;;;;;;;13.01;93.17;98720.44;4170078;28;20215;-51
2023/01/01 05:03:30;;;;;;;3.55;1.52;;;;;;;12.93;93.90;98718.13;4182632;28;20296;-51
2023/01/01 05:05:31;;;;;;;1.73;1.30;;;;;;;12.89;93.91;98727.97;4169074;28;20870;-52
2023/01/01 05:07:33;;;;;;;2.50;1.20;;;;;;;12.83;94.30;98731.75;4173045;28;20205;-51
2023/01/01 05:09:35;;;;;;;1.42;1.33;;;;;;;12.84;94.20;98730.66;4169754;28;20913;-51
2023/01/01 05:11:37;;;;;;;1.42;1.20;;;;;;;12.89;93.54;98727.97;4171285;28;20251;-52
2023/01/01 05:13:43;;;;;;;1.92;1.83;;;;;;;12.97;93.79;98733.00;4169779;28;20208;-52
2023/01/01 05:15:45;;;;;;;1.40;1.30;;;;;;;12.98;92.99;98734.66;4182657;28;20673;-51
2023/01/01 05:17:47;;;;;;;1.20;1.10;;;;;;;12.95;93.03;98743.44;4154649;28;20225;-51
2023/01/01 05:19:49;;;;;;;1.30;1.20;;;;;;;12.99;93.18;98749.25;4172630;28;20255;-51
2023/01/01 05:21:50;;;;;;;2.00;1.20;;;;;;;12.98;93.18;98740.16;4155953;28;20239;-52
2023/01/01 05:23:58;;;;;;;1.65;1.55;;;;;;;12.94;93.66;98744.50;4170148;28;20212;-53
2023/01/01 05:26:00;;;;;;;1.20;1.10;;;;;;;13.03;93.10;98759.44;4167789;28;20214;-51
2023/01/01 05:28:02;;;;;;;2.58;1.10;;;;;;;13.01;93.03;98756.13;4170468;28;20254;-51
2023/01/01 05:30:04;;;;;;;1.58;1.15;;;;;;;12.94;93.58;98757.38;4168625;28;20228;-52
2023/01/01 05:32:06;;;;;;;3.08;1.48;;;;;;;12.92;93.46;98759.56;4168093;28;20232;-52
2023/01/01 05:34:06;;;;;;;1.35;1.10;;;;;;;12.90;93.48;98762.56;4172718;28;20192;-51
2023/01/01 05:36:09;;;;;;;3.25;1.30;;;;;;;12.83;93.77;98763.88;4172189;28;20184;-50
2023/01/01 05:38:11;;;;;;;1.50;1.40;;;;;;;12.84;93.58;98779.28;4185815;28;20203;-51
2023/01/01 05:40:12;;;;;;;3.25;1.60;;;;;;;12.81;93.90;98769.63;4168197;28;20362;-50
2023/01/01 05:42:14;;;;;;;1.95;1.60;;;;;;;12.82;94.13;98768.53;4169611;28;20299;-52
2023/01/01 05:44:18;;;;;;;1.35;1.25;;;;;;;12.86;93.71;98766.94;4165665;28;20238;-52
2023/01/01 05:46:22;;;;;;;1.33;1.20;;;;;;;12.83;93.83;98777.63;4166610;28;20208;-51
2023/01/01 05:48:24;;;;;;;3.60;2.20;;;;;;;12.89;93.61;98766.41;4183897;28;20219;-51
2023/01/01 05:50:25;;;;;;;3.47;1.30;;;;;;;12.91;93.17;98764.22;4168401;28;20314;-51
2023/01/01 05:52:27;;;;;;;1.45;1.20;;;;;;;12.83;93.34;98770.19;4169792;28;20725;-50
2023/01/01 05:54:29;;;;;;;1.55;1.40;;;;;;;12.78;93.71;98770.13;4168930;28;20201;-51
2023/01/01 05:56:30;;;;;;;2.80;1.52;;;;;;;12.81;93.25;98768.78;4168533;28;20247;-51
2023/01/01 05:58:33;;;;;;;1.38;1.08;;;;;;;12.84;93.30;98774.59;4168583;28;20218;-51
2023/01/01 06:00:35;;;;;;;3.28;1.45;;;;;;;12.81;93.49;98775.13;4167054;28;21960;-51
2023/01/01 06:02:37;;;;;;;1.95;1.35;;;;;;;12.79;93.78;98774.56;4168075;28;20219;-52
2023/01/01 06:04:38;;;;;;;1.73;1.50;;;;;;;12.79;93.24;98781.97;4169321;28;20287;-51
2023/01/01 06:06:40;;;;;;;1.58;1.30;;;;;;;12.75;93.40;98789.88;4153923;28;20215;-51
2023/01/01 06:08:51;;;;;;;1.45;1.35;;;;;;;12.75;93.63;98786.28;4168221;28;20236;-51
2023/01/01 06:10:58;;;;;;;2.40;1.50;;;;;;;12.72;93.46;98795.91;4169439;28;20208;-51
2023/01/01 06:12:59;;;;;;;1.80;1.30;;;;;;;12.68;93.88;98781.00;4168974;28;20219;-51
2023/01/01 06:15:01;;;;;;;2.33;1.35;;;;;;;12.61;94.44;98788.63;4167877;28;20674;-52
2023/01/01 06:17:03;;;;;;;7.05;1.98;;;;;;;12.64;93.86;98779.84;4170543;28;20225;-50
2023/01/01 06:19:05;;;;;;;7.97;1.92;;;;;;;12.72;93.68;98779.44;4168142;28;20282;-51
2023/01/01 06:21:12;;;;;;;6.68;1.60;;;;;;;12.70;93.68;98787.06;4168582;28;20376;-51
2023/01/01 06:23:13;;;;;;;2.40;1.65;;;;;;;12.66;93.69;98787.84;4171700;28;20227;-51
2023/01/01 06:25:15;;;;;;;1.63;1.17;;;;;;;12.68;93.60;98802.13;4168461;28;20212;-51
2023/01/01 06:27:17;;;;;;;2.97;1.35;;;;;;;12.63;93.64;98789.19;4169190;28;20216;-50
2023/01/01 06:29:19;;;;;;;6.03;1.30;;;;;;;12.61;93.89;98790.53;4150603;28;20227;-51
2023/01/01 06:31:21;;;;;;;1.75;1.40;;;;;;;12.67;93.74;98790.34;4168463;28;20239;-51
2023/01/01 06:33:23;;;;;;;2.40;1.38;;;;;;;12.61;94.15;98807.00;4174307;28;20763;-51
2023/01/01 06:35:25;;;;;;;1.33;1.10;;;;;;;12.62;93.90;98811.41;4168454;28;20258;-50
2023/01/01 06:37:28;;;;;;;4.28;1.33;;;;;;;12.58;93.91;98808.34;4168296;28;20266;-49
2023/01/01 06:39:29;;;;;;;1.20;1.00;;;;;;;12.56;94.34;98816.00;4167977;28;20259;-50
2023/01/01 06:41:31;;;;;;;1.02;0.98;;;;;;;12.51;94.74;98806.88;4167561;28;20251;-50
2023/01/01 06:43:34;;;;;;;5.85;1.20;;;;;;;12.49;94.61;98809.88;4165837;28;20302;-51
2023/01/01 06:45:36;;;;;;;2.15;1.17;;;;;;;12.49;94.21;98815.38;4171369;28;21151;-51
2023/01/01 06:47:38;;;;;;;1.90;1.55;;;;;;;12.59;93.49;98821.00;4171965;28;20196;-50
2023/01/01 06:49:39;;;;;;;4.72;1.95;;;;;;;12.54;93.98;98812.69;4172854;28;20232;-50
2023/01/01 06:51:42;;;;;;;2.08;1.30;;;;;;;12.68;92.95;98816.72;4174548;28;20211;-50
2023/01/01 06:53:45;;;;;;;1.35;1.08;;;;;;;12.60;93.58;98811.69;4160257;28;20212;-50
2023/01/01 06:55:48;;;;;;;4.00;1.48;;;;;;;12.59;93.47;98812.75;4176776;28;20208;-52
2023/01/01 06:57:57;;;;;;;2.22;1.30;;;;;;;12.59;93.49;98815.50;4173282;28;20212;-51
2023/01/01 06:59:59;;;;;;;1.23;1.13;;;;;;;12.47;93.83;98809.31;4170853;28;20682;-51
2023/01/01 07:02:00;;;;;;;2.63;1.35;;;;;;;12.46;94.33;98817.78;4185008;28;20215;-51
2023/01/01 07:04:07;;;;;;;0.98;0.98;;;;;;;12.50;93.54;98813.47;4171012;28;20348;-51
2023/01/01 07:06:09;;;;;;;4.47;1.73;;;;;;;12.50;93.80;98817.03;4171940;28;20601;-51
2023/01/01 07:08:11;;;;;;;3.10;1.80;;;;;;;12.67;92.65;98817.81;4185056;28;20265;-51
2023/01/01 07:10:13;;;;;;;2.55;2.33;;;;;;;12.64;92.95;98832.03;4170939;28;20255;-51
2023/01/01 07:12:15;;;;;;;1.10;1.00;;;;;;;12.55;93.07;98829.97;4169903;28;20232;-51
2023/01/01 07:14:16;;;;;;;1.83;0.90;;;;;;;12.62;93.07;98830.63;4168928;28;20301;-51
2023/01/01 07:16:18;;;;;;;1.65;1.17;;;;;;;12.62;92.64;98828.72;4173378;28;20204;-50
2023/01/01 07:18:21;;;;;;;2.13;1.90;;;;;;;12.63;92.65;98833.13;4169530;28;20673;-51
2023/01/01 07:20:23;;;;;;;2.03;1.50;;;;;;;12.55;92.80;98843.69;4172298;28;21198;-52
2023/01/01 07:22:25;;;;;;;1.52;1.30;;;;;;;12.57;93.27;98861.59;4170026;28;20205;-51
2023/01/01 07:24:27;;;;;;;2.03;0.93;;;;;;;12.54;93.08;98851.13;4169782;28;20315;-51
2023/01/01 07:26:30;;;;;;;3.03;1.35;;;;;;;12.55;92.84;98857.44;4155792;28;20204;-52
2023/01/01 07:28:32;;;;;;;1.70;1.35;;;;;;;12.57;93.03;98858.84;4171116;28;20196;-51
2023/01/01 07:30:35;;;;;;;5.97;1.20;;;;;;;12.60;92.59;98855.59;4170892;28;20330;-50
2023/01/01 07:32:37;;;;;;;1.75;1.20;;;;;;;12.60;92.46;98850.13;4168583;28;21221;-51
2023/01/01 07:34:38;;;;;;;3.42;1.35;;;;;;;12.62;92.28;98858.06;4166566;28;20270;-51
2023/01/01 07:36:40;;;;;;;2.00;1.45;;;;;;;12.59;92.72;98859.44;4172169;28;20212;-51
2023/01/01 07:38:42;;;;;;;2.83;1.00;;;;;;;12.59;92.39;98859.44;4171664;28;20223;-52
2023/01/01 07:40:44;;;;;;;3.22;1.90;;;;;;;12.49;93.20;98852.94;4187004;28;20251;-51
2023/01/01 07:42:46;;;;;;;1.58;1.40;;;;;;;12.48;92.79;98852.13;4170414;28;20212;-51
2023/01/01 07:44:48;;;;;;;2.38;1.30;;;;;;;12.54;92.56;98842.88;4171354;28;20247;-51
2023/01/01 07:46:49;;;;;;;1.05;0.90;;;;;;;12.54;92.73;98848.38;4174921;28;20200;-51
2023/01/01 07:48:51;;;;;;;1.42;1.33;;;;;;;12.51;92.93;98859.84;4169195;28;20204;-50
2023/01/01 07:50:53;;;;;;;1.58;1.20;;;;;;;12.55;92.66;98857.44;4170509;28;20201;-51
2023/01/01 07:52:55;;;;;;;2.47;1.60;;;;;;;12.52;92.41;98861.53;4168130;28;20212;-50
2023/01/01 07:54:56;;;;;;;2.08;1.75;;;;;;;12.46;92.78;98865.28;4168156;28;20220;-50
2023/01/01 07:56:58;;;;;;;1.85;1.27;;;;;;;12.43;93.07;98871.28;4169170;28;20299;-51
2023/01/01 07:59:00;;;;;;;3.45;2.13;;;;;;;12.49;92.92;98869.41;4172309;28;20211;-50
2023/01/01 08:01:02;;;;;;;1.90;1.40;;;;;;;12.44;92.84;98878.41;4173917;28;20784;-51
2023/01/01 08:03:04;;;;;;;4.25;1.20;;;;;;;12.56;92.63;98878.34;4168778;28;20200;-50
2023/01/01 08:05:06;;;;;;;6.35;1.30;;;;;;;12.49;92.93;98885.88;4170156;28;20281;-50
2023/01/01 08:07:08;;;;;;;2.55;1.75;;;;;;;12.51;92.78;98878.25;4186918;28;20768;-51
2023/01/01 08:09:10;;;;;;;1.50;1.20;;;;;;;12.48;93.02;98885.06;4167228;28;20332;-50
2023/01/01 08:11:12;;;;;;;1.70;1.30;;;;;;;12.51;92.50;98879.06;4170149;28;20676;-50
2023/01/01 08:13:13;;;;;;;1.83;1.70;;;;;;;12.54;92.95;98884.06;4151623;28;20224;-50
2023/01/01 08:15:15;;;;;;;3.47;1.85;;;;;;;12.56;92.69;98878.34;4149705;28;20209;-51
2023/01/01 08:17:17;;;;;;;2.53;1.00;;;;;;;12.50;93.14;98880.16;4166044;28;20272;-50
2023/01/01 08:19:19;;;;;;;11.32;1.65;;;;;;;12.49;93.12;98881.25;4169857;28;20251;-50
2023/01/01 08:21:21;;;;;;;1.27;1.20;;;;;;;12.52;92.59;98891.75;4170928;28;20326;-50
2023/01/01 08:23:23;;;;;;;3.58;1.15;;;;;;;12.52;93.29;98883.50;4172074;28;20887;-50
2023/01/01 08:25:25;;;;;;;1.75;1.60;;;;;;;12.52;92.91;98880.75;4170492;28;20639;-52
2023/01/01 08:27:26;;;;;;;1.88;1.67;;;;;;;12.61;92.70;98887.47;4173133;28;20566;-51
2023/01/01 08:29:28;;;;;;;3.03;1.42;;;;;;;12.72;92.28;98880.19;4169998;28;20320;-51
2023/01/01 08:31:30;;;;;;;0.80;0.80;;;;;;;12.83;91.72;98893.78;4170197;28;20212;-51
2023/01/01 08:33:32;;;;;;;2.00;1.17;;;;;;;12.87;91.09;98889.47;4168295;28;20278;-51
2023/01/01 08:35:35;;;;;;;2.30;1.23;;;;;;;12.91;90.58;98889.78;4169349;28;20230;-51
2023/01/01 08:37:37;;;;;;;2.03;1.42;;;;;;;12.95;90.36;98899.19;4158457;28;20947;-51
2023/01/01 08:39:39;;;;;;;2.63;1.30;;;;;;;12.98;89.91;98891.25;4185601;28;20289;-51
2023/01/01 08:41:41;;;;;;;1.60;1.50;;;;;;;12.95;90.62;98907.41;4173201;28;20208;-50
2023/01/01 08:43:42;;;;;;;3.90;2.33;;;;;;;12.95;90.59;98897.28;4169109;28;20208;-51
2023/01/01 08:45:44;;;;;;;4.07;1.23;;;;;;;13.03;90.73;98905.06;4170706;28;20294;-51
2023/01/01 08:47:46;;;;;;;4.15;1.60;;;;;;;12.96;90.34;98909.91;4170865;28;20232;-50
2023/01/01 08:49:48;;;;;;;1.67;1.45;;;;;;;12.92;90.62;98911.50;4169961;28;20260;-51
2023/01/01 08:51:50;;;;;;;4.82;1.77;;;;;;;13.00;89.99;98913.81;4172159;28;20220;-51
2023/01/01 08:53:51;;;;;;;1.55;1.05;;;;;;;13.04;90.37;98920.44;4171131;28;20246;-51
2023/01/01 08:55:57;;;;;;;4.40;1.88;;;;;;;13.00;90.10;98916.56;4171894;28;20215;-51
2023/01/01 08:57:59;;;;;;;8.57;1.10;;;;;;;13.04;90.07;98912.22;4171275;28;20694;-51
2023/01/01 09:00:01;;;;;;;1.02;0.88;;;;;;;13.08;89.84;98907.03;4171165;28;20709;-51
2023/01/01 09:02:03;;;;;;;2.45;2.25;;;;;;;13.14;89.48;98919.75;4170579;28;20997;-51
2023/01/01 09:04:07;;;;;;;3.45;2.53;;;;;;;13.22;89.47;98922.88;4171174;28;20212;-51
2023/01/01 09:06:16;;;;;;;2.22;1.00;;;;;;;13.20;89.84;98925.06;4172246;28;20212;-52
2023/01/01 09:08:18;;;;;;;3.00;1.50;;;;;;;13.23;89.07;98931.97;4167233;28;20775;-50
2023/01/01 09:10:20;;;;;;;1.90;1.33;;;;;;;13.24;88.68;98931.69;4184803;28;20296;-51
2023/01/01 09:12:21;;;;;;;1.73;1.20;;;;;;;13.25;88.41;98929.78;4182571;28;20213;-50
2023/01/01 09:14:24;;;;;;;1.35;1.25;;;;;;;13.27;89.00;98931.19;4172273;28;20661;-50
2023/01/01 09:16:25;;;;;;;3.38;1.73;;;;;;;13.28;88.70;98932.00;4169348;28;20310;-50
2023/01/01 09:18:27;;;;;;;2.17;1.90;;;;;;;13.30;88.73;98922.41;4154941;28;20251;-50
2023/01/01 09:20:29;;;;;;;2.28;1.20;;;;;;;13.29;88.37;98926.25;4169134;28;20311;-51
2023/01/01 09:22:32;;;;;;;1.52;1.40;;;;;;;13.30;88.80;98925.16;4168569;28;20404;-51
2023/01/01 09:24:34;;;;;;;2.03;1.05;;;;;;;13.34;88.11;98934.56;4171562;28;20239;-52
2023/01/01 09:26:37;;;;;;;1.45;1.02;;;;;;;13.38;88.25;98938.44;4173205;28;21840;-52
2023/01/01 09:28:39;;;;;;;2.03;1.58;;;;;;;13.32;87.86;98934.00;4169814;28;20304;-51
2023/01/01 09:30:41;;;;;;;3.25;1.30;;;;;;;13.34;88.25;98933.72;4183327;28;20508;-52
2023/01/01 09:32:42;;;;;;;2.13;1.25;;;;;;;13.25;88.72;98944.34;4153890;28;20216;-51
2023/01/01 09:34:44;;;;;;;1.95;1.10;;;;;;;13.33;88.38;98940.31;4170552;28;20207;-51
2023/01/01 09:36:52;;;;;;;4.53;1.75;;;;;;;13.37;88.16;98939.53;4164857;28;20283;-51
2023/01/01 09:38:55;;;;;;;2.05;1.40;;;;;;;13.35;87.94;98946.38;4167724;28;20256;-51
2023/01/01 09:41:38;;;;;;;1.50;1.20;;;;;;;13.45;87.83;98952.84;4173442;28;20212;-50
2023/01/01 09:44:16;;;;;;;2.88;1.85;;;;;;;13.52;87.50;98953.47;4083269;28;20223;-50
2023/01/01 09:46:18;;;;;;;3.67;1.23;;;;;;;13.54;87.50;98962.28;4170438;28;20237;-51
2023/01/01 09:48:20;;;;;;;2.63;1.55;;;;;;;13.51;87.60;98954.53;4167628;28;20216;-52